Olney, TX

5:20 PM CST on February 27, 2015 (GMT -0600)
Wichita Falls | Change Station
CLOSE
Current Station
Airport
Location: Wichita Falls,
Elevation: 997 ft
Nearby Weather Stations
Active Advisory: Winter Weather Advisory Active Notice: Record Report, Local Storm Report

Elev 997 ft 33.86 °N, 98.49 °W | Updated 5 minutes ago

Overcast
Overcast
22 °F
Feels Like 12 °F
N
9
Wind Variable Wind from ENE

Today
High -- | Low -- °F
--% Chance of Precip.
Yesterday
High -- | Low -- °F
Precip. -- in
7:05 AM 6:30 PM
Waxing Gibbous, 72% visible
Pressure 30.44 in
Visibility 4.0 miles
Clouds Overcast 1400 ft
Windchill 12 °F
Dew Point 18 °F
Humidity 84%
Rainfall 0.00 in
Snow Depth Not available.
UV 0 out of 12
Pollen 1.30 out of 12
Air Quality Not available.
Flu Activity Not available.
METAR KCWC 272315Z AUTO 06008KT 4SM -SN OVC014 M05/M08 A3044 RMK AO2 T10551078

More Conditions Fewer Conditions

Pressure 30.44 in
Visibility 4.0 miles
Clouds Overcast 1400 ft
Windchill 12 °F
Dew Point 18 °F
Humidity 84%
Rainfall 0.00 in
Snow Depth Not available.
UV 0 out of 12
Pollen 1.30 out of 12
Air Quality Not available.
Flu Activity Not available.
METAR KCWC 272315Z AUTO 06008KT 4SM -SN OVC014 M05/M08 A3044 RMK AO2 T10551078

More Conditions Fewer Conditions

10-Day Weather Forecast

Almanac

Astronomy

Feb. 27, 2015 Rise Set
Actual Time
Civil Twilight
Nautical Twilight
Astronomical Twilight
Moon
Length of Visible Light
Length of Day
Tomorrow will be .
, % of the Moon is Illuminated

Today's Extremes

State Highs State Lows

Community

WunderPhotos

Upload Photos

1,800,876 photos uploaded!

WunderBlogs® & News

Nearby

Air Quality

  Air Quality AQ Index Pollutant
Not available.

Snow Depth

Station Depth Elevation

Earthquake Activity

City Distance Mag. Time & Date
Minimum magnitude displayed is 2.5.

Coastal Water Temperatures

Place Temperature

Nearby Weather Stations

Winter Weather Advisory
Statement as of 4:52 PM CST on February 27, 2015

... Winter Weather Advisory remains in effect until 6 PM CST
Saturday...

* location... this statement is for areas along and northwest of
a line from Goldthwaite to Hillsboro to Canton.

* Timing... through Saturday afternoon.

* Precipitation type... light snow is likely through mid evening.
Light snow or freezing drizzle is likely late evening through
Saturday.

* Accumulation... light snow accumulation is possible. Less than
a tenth of an inch of ice is possible through Saturday.

* Main impact... snow and ice will make for hazardous travel.
Temperatures will be cold enough for accumulations on all
roads... bridges... and overpasses.

Precautionary/preparedness actions...

A Winter Weather Advisory means that periods of winter
precipitation will cause travel difficulties so travel is
discouraged. Be prepared for slippery roads and plan on some
travel delays.